createdAt,value
2022-08-28T00:00:43.652Z,5.63
2022-08-28T00:03:15.585Z,4.38
2022-08-28T00:05:47.004Z,5.80
2022-08-28T00:08:17.109Z,6.65
2022-08-28T00:10:51.552Z,3.38
2022-08-28T00:13:23.275Z,6.00
2022-08-28T00:15:55.897Z,5.78
2022-08-28T00:18:26.507Z,6.50
2022-08-28T00:20:54.407Z,4.43
2022-08-28T00:23:22.798Z,4.40
2022-08-28T00:25:50.108Z,2.67
2022-08-28T00:28:24.144Z,4.55
2022-08-28T00:30:54.872Z,5.03
2022-08-28T00:33:33.169Z,2.55
2022-08-28T00:36:03.981Z,3.95
2022-08-28T00:38:31.708Z,3.67
2022-08-28T00:41:03.725Z,3.65
2022-08-28T00:43:47.081Z,7.82
2022-08-28T00:46:22.125Z,6.40
2022-08-28T00:48:50.144Z,5.05
2022-08-28T00:51:39.001Z,4.70
2022-08-28T00:54:08.038Z,5.68
2022-08-28T00:56:37.984Z,3.95
2022-08-28T00:59:11.854Z,4.40
2022-08-28T01:01:43.319Z,4.40
2022-08-28T01:04:19.010Z,6.18
2022-08-28T01:06:53.559Z,4.70
2022-08-28T01:09:24.440Z,4.82
2022-08-28T01:11:54.463Z,3.92
2022-08-28T01:14:26.687Z,3.88
2022-08-28T01:16:57.632Z,4.55
2022-08-28T01:19:56.537Z,2.53
2022-08-28T01:22:37.327Z,4.35
2022-08-28T01:25:18.686Z,5.70
2022-08-28T01:27:45.915Z,3.47
2022-08-28T01:30:16.646Z,4.35
2022-08-28T01:32:47.776Z,4.25
2022-08-28T01:35:20.309Z,4.32
2022-08-28T01:37:48.064Z,7.40
2022-08-28T01:40:23.981Z,4.20
2022-08-28T01:42:51.234Z,2.92
2022-08-28T01:45:20.929Z,5.32
2022-08-28T01:47:48.626Z,4.47
2022-08-28T01:50:21.821Z,4.30
2022-08-28T01:52:51.549Z,3.55
2022-08-28T01:55:20.655Z,3.95
2022-08-28T01:57:53.925Z,3.45
2022-08-28T02:00:27.643Z,6.63
2022-08-28T02:02:56.774Z,5.13
2022-08-28T02:05:25.671Z,4.28
2022-08-28T02:07:53.177Z,5.60
2022-08-28T02:10:26.538Z,3.97
2022-08-28T02:12:59.205Z,4.82
2022-08-28T02:15:28.287Z,5.03
2022-08-28T02:17:56.052Z,5.35
2022-08-28T02:20:27.070Z,3.78
2022-08-28T02:22:55.058Z,5.50
2022-08-28T02:25:25.799Z,5.32
2022-08-28T02:27:53.363Z,6.25
2022-08-28T02:30:23.572Z,7.28
2022-08-28T02:32:53.327Z,3.35
2022-08-28T02:35:26.204Z,3.85
2022-08-28T02:37:54.593Z,5.07
2022-08-28T02:40:26.024Z,7.43
2022-08-28T02:42:55.735Z,4.35
2022-08-28T02:45:25.215Z,4.88
2022-08-28T02:47:53.821Z,5.65
2022-08-28T02:50:24.061Z,4.53
2022-08-28T02:52:52.283Z,3.67
2022-08-28T02:55:20.731Z,6.95
2022-08-28T02:57:48.713Z,4.35
2022-08-28T03:00:21.116Z,10.55
2022-08-28T03:02:53.418Z,10.32
2022-08-28T03:05:23.275Z,4.78
2022-08-28T03:07:53.333Z,5.65
2022-08-28T03:10:24.008Z,8.05
2022-08-28T03:12:51.768Z,6.18
2022-08-28T03:15:19.290Z,5.78
2022-08-28T03:17:49.162Z,5.65
2022-08-28T03:20:20.181Z,5.53
2022-08-28T03:23:05.923Z,7.93
2022-08-28T03:25:33.135Z,4.70
2022-08-28T03:28:05.274Z,7.20
2022-08-28T03:30:32.560Z,3.70
2022-08-28T03:33:00.740Z,11.80
2022-08-28T03:35:27.968Z,7.85
2022-08-28T03:37:55.225Z,5.53
2022-08-28T03:40:24.720Z,7.40
2022-08-28T03:42:53.206Z,7.60
2022-08-28T03:45:21.264Z,7.75
2022-08-28T03:47:48.776Z,5.80
2022-08-28T03:50:18.569Z,8.82
2022-08-28T03:52:49.395Z,7.45
2022-08-28T03:55:20.141Z,6.93
2022-08-28T03:57:47.325Z,5.97
2022-08-28T04:00:20.436Z,5.78
2022-08-28T04:02:47.628Z,9.07
2022-08-28T04:05:15.785Z,8.82
2022-08-28T04:07:45.809Z,6.68
2022-08-28T04:10:15.907Z,8.15
2022-08-28T04:12:44.476Z,9.75
2022-08-28T04:15:15.288Z,11.70
2022-08-28T04:17:42.513Z,10.43
2022-08-28T04:20:11.038Z,7.85
2022-08-28T04:22:40.664Z,13.77
2022-08-28T04:25:08.904Z,8.85
2022-08-28T04:27:38.633Z,5.75
2022-08-28T04:30:09.741Z,7.93
2022-08-28T04:32:38.888Z,10.80
2022-08-28T04:35:13.475Z,10.18
2022-08-28T04:37:43.859Z,6.65
2022-08-28T04:40:15.974Z,6.72
2022-08-28T04:42:45.091Z,9.25
2022-08-28T04:45:14.963Z,8.63
2022-08-28T04:47:44.682Z,10.65
2022-08-28T04:50:16.592Z,9.98
2022-08-28T04:52:43.797Z,9.68
2022-08-28T04:55:14.490Z,8.40
2022-08-28T04:57:45.431Z,10.02
2022-08-28T05:00:15.398Z,7.93
2022-08-28T05:02:42.854Z,6.18
2022-08-28T05:05:11.775Z,8.50
2022-08-28T05:07:41.237Z,7.82
2022-08-28T05:10:14.922Z,12.10
2022-08-28T05:12:42.140Z,8.55
2022-08-28T05:15:12.609Z,8.68
2022-08-28T05:17:42.374Z,9.50
2022-08-28T05:20:10.040Z,10.38
2022-08-28T05:22:37.243Z,9.45
2022-08-28T05:25:06.953Z,10.20
2022-08-28T05:27:35.405Z,9.38
2022-08-28T05:30:05.813Z,6.05
2022-08-28T05:32:33.191Z,9.30
2022-08-28T05:35:00.758Z,8.27
2022-08-28T05:37:28.169Z,7.85
2022-08-28T05:39:55.756Z,8.23
2022-08-28T05:42:30.590Z,6.75
2022-08-28T05:44:59.503Z,8.00
2022-08-28T05:47:32.652Z,7.72
2022-08-28T05:50:04.528Z,10.40
2022-08-28T05:52:34.831Z,8.73
2022-08-28T05:55:05.517Z,10.27
2022-08-28T05:57:32.696Z,6.97
2022-08-28T06:00:00.109Z,7.37
2022-08-28T06:02:34.470Z,9.48
2022-08-28T06:05:02.179Z,12.02
2022-08-28T06:07:29.452Z,6.38
2022-08-28T06:09:59.308Z,10.45
2022-08-28T06:12:26.546Z,6.90
2022-08-28T06:14:56.042Z,5.97
2022-08-28T06:17:26.589Z,8.85
2022-08-28T06:19:53.943Z,6.10
2022-08-28T06:22:21.131Z,8.00
2022-08-28T06:24:48.404Z,7.57
2022-08-28T06:27:18.099Z,11.05
2022-08-28T06:29:45.848Z,8.20
2022-08-28T06:32:15.191Z,8.45
2022-08-28T06:34:42.934Z,8.93
2022-08-28T06:37:10.339Z,7.82
2022-08-28T06:39:39.881Z,8.40
2022-08-28T06:42:07.264Z,7.70
2022-08-28T06:44:38.509Z,6.00
2022-08-28T06:47:06.265Z,9.18
2022-08-28T06:49:36.160Z,10.27
2022-08-28T06:52:03.611Z,4.65
2022-08-28T06:54:31.144Z,8.63
2022-08-28T06:57:04.601Z,8.10
2022-08-28T06:59:39.278Z,6.38
2022-08-28T07:02:10.275Z,7.40
2022-08-28T07:04:38.104Z,7.05
2022-08-28T07:07:06.477Z,5.90
2022-08-28T07:09:33.706Z,8.80
2022-08-28T07:12:08.999Z,6.53
2022-08-28T07:14:38.154Z,9.75
2022-08-28T07:17:07.267Z,6.40
2022-08-28T07:19:34.528Z,6.35
2022-08-28T07:22:04.835Z,9.45
2022-08-28T07:24:32.126Z,12.77
2022-08-28T07:27:02.541Z,9.13
2022-08-28T07:29:35.403Z,9.53
2022-08-28T07:32:03.954Z,4.47
2022-08-28T07:34:39.030Z,6.63
2022-08-28T07:37:10.177Z,10.68
2022-08-28T07:39:40.634Z,9.57
2022-08-28T07:42:10.727Z,8.67
2022-08-28T07:44:49.806Z,8.17
2022-08-28T07:47:18.552Z,7.20
2022-08-28T07:49:46.025Z,9.80
2022-08-28T07:52:13.339Z,5.70
2022-08-28T07:54:40.832Z,7.70
2022-08-28T07:57:10.551Z,6.60
2022-08-28T07:59:38.446Z,4.85
2022-08-28T08:02:07.037Z,6.18
2022-08-28T08:04:39.989Z,6.05
2022-08-28T08:07:12.893Z,8.80
2022-08-28T08:09:42.230Z,10.65
2022-08-28T08:12:17.763Z,7.32
2022-08-28T08:14:45.705Z,5.22
2022-08-28T08:17:13.052Z,7.60
2022-08-28T08:19:44.655Z,8.32
2022-08-28T08:22:16.492Z,10.80
2022-08-28T08:24:45.948Z,7.67
2022-08-28T08:27:13.228Z,6.68
2022-08-28T08:29:42.493Z,7.18
2022-08-28T08:32:14.426Z,6.32
2022-08-28T08:34:47.992Z,6.50
2022-08-28T08:37:17.988Z,6.43
2022-08-28T08:39:47.713Z,6.35
2022-08-28T08:42:30.512Z,7.05
2022-08-28T08:45:00.293Z,6.32
2022-08-28T08:47:53.978Z,5.38
2022-08-28T08:50:30.952Z,8.40
2022-08-28T08:53:16.936Z,5.22
2022-08-28T08:55:57.895Z,8.48
2022-08-28T08:58:36.230Z,4.68
2022-08-28T09:01:09.634Z,7.22
2022-08-28T09:03:55.075Z,5.53
2022-08-28T09:06:44.610Z,3.55
2022-08-28T09:09:21.080Z,7.03
2022-08-28T09:11:57.182Z,5.13
2022-08-28T09:14:38.659Z,5.10
2022-08-28T09:17:06.968Z,5.53
2022-08-28T09:19:36.556Z,6.57
2022-08-28T09:22:08.397Z,8.25
2022-08-28T09:24:41.218Z,5.25
2022-08-28T09:27:29.781Z,6.22
2022-08-28T09:30:07.557Z,6.57
2022-08-28T09:32:41.548Z,5.80
2022-08-28T09:35:27.970Z,6.35
2022-08-28T09:38:27.912Z,4.93
2022-08-28T09:41:27.904Z,5.75
2022-08-28T09:43:55.991Z,8.40
2022-08-28T09:46:31.989Z,5.57
2022-08-28T09:49:12.845Z,6.45
2022-08-28T09:51:40.808Z,5.32
2022-08-28T09:54:22.596Z,6.03
2022-08-28T09:56:55.176Z,6.78
2022-08-28T09:59:24.742Z,5.85
2022-08-28T10:02:02.190Z,4.43
2022-08-28T10:04:45.922Z,7.47
2022-08-28T10:07:23.766Z,6.35
2022-08-28T10:10:26.275Z,4.53
2022-08-28T10:13:20.510Z,7.63
2022-08-28T10:16:02.179Z,10.98
2022-08-28T10:18:50.114Z,5.97
2022-08-28T10:21:37.678Z,6.07
2022-08-28T10:24:34.184Z,7.15
2022-08-28T10:27:07.555Z,6.70
2022-08-28T10:29:51.730Z,6.40
2022-08-28T10:32:24.033Z,6.30
2022-08-28T10:35:07.924Z,4.55
2022-08-28T10:37:55.267Z,6.28
2022-08-28T10:40:29.118Z,5.55
2022-08-28T10:43:11.084Z,6.28
2022-08-28T10:45:39.675Z,4.43
2022-08-28T10:48:25.167Z,6.35
2022-08-28T10:50:57.634Z,5.38
2022-08-28T10:53:30.820Z,6.97
2022-08-28T10:56:18.073Z,6.95
2022-08-28T10:58:51.314Z,7.22
2022-08-28T11:01:32.689Z,4.80
2022-08-28T11:04:07.312Z,5.22
2022-08-28T11:06:43.333Z,5.53
2022-08-28T11:09:29.356Z,4.90
2022-08-28T11:12:19.900Z,4.15
2022-08-28T11:14:51.418Z,5.55
2022-08-28T11:17:25.399Z,3.05
2022-08-28T11:20:28.998Z,5.43
2022-08-28T11:23:13.293Z,5.22
2022-08-28T11:25:58.827Z,4.75
2022-08-28T11:28:27.114Z,5.90
2022-08-28T11:31:06.011Z,5.03
2022-08-28T11:33:47.902Z,6.80
2022-08-28T11:36:24.207Z,3.67
2022-08-28T11:38:51.345Z,2.88
2022-08-28T11:41:24.352Z,6.93
2022-08-28T11:44:09.716Z,4.93
2022-08-28T11:46:50.695Z,4.32
2022-08-28T11:49:26.908Z,6.57
2022-08-28T11:52:18.340Z,4.95
2022-08-28T11:55:06.035Z,3.58
2022-08-28T12:01:01.606Z,6.18
2022-08-28T12:03:59.474Z,6.47
2022-08-28T12:06:45.087Z,4.72
2022-08-28T12:09:52.767Z,7.82
2022-08-28T12:12:24.872Z,3.78
2022-08-28T12:15:00.921Z,4.72
2022-08-28T12:17:42.065Z,2.10
2022-08-28T12:20:28.287Z,5.68
2022-08-28T12:23:01.105Z,4.82
2022-08-28T12:25:42.295Z,5.15
2022-08-28T12:28:26.946Z,2.47
2022-08-28T12:31:00.065Z,3.55
2022-08-28T12:33:36.725Z,4.78
2022-08-28T12:36:10.528Z,4.43
2022-08-28T12:38:40.688Z,5.13
2022-08-28T12:41:17.087Z,5.03
2022-08-28T12:43:48.535Z,4.82
2022-08-28T12:46:27.224Z,5.60
2022-08-28T12:49:02.183Z,5.97
2022-08-28T12:51:30.631Z,8.32
2022-08-28T12:54:07.698Z,3.42
2022-08-28T12:56:38.615Z,5.03
2022-08-28T12:59:40.165Z,3.80
2022-08-28T13:02:33.543Z,2.92
2022-08-28T13:05:03.033Z,3.17
2022-08-28T13:07:34.872Z,4.22
2022-08-28T13:10:19.396Z,4.28
2022-08-28T13:12:56.337Z,5.57
2022-08-28T13:15:46.432Z,5.95
2022-08-28T13:18:55.433Z,3.25
2022-08-28T13:21:33.455Z,5.22
2022-08-28T13:24:20.633Z,2.63
2022-08-28T13:26:59.240Z,4.57
2022-08-28T13:29:26.681Z,3.35
2022-08-28T13:32:04.632Z,1.80
2022-08-28T13:34:35.035Z,2.78
2022-08-28T13:37:07.265Z,2.97
2022-08-28T13:39:44.734Z,5.05
2022-08-28T13:42:25.480Z,2.65
2022-08-28T13:44:56.106Z,2.70
2022-08-28T13:47:23.333Z,3.33
2022-08-28T13:49:57.381Z,3.97
2022-08-28T13:52:29.513Z,3.65
2022-08-28T13:54:59.483Z,3.88
2022-08-28T13:57:29.328Z,3.30
2022-08-28T14:00:02.746Z,4.75
2022-08-28T14:02:50.751Z,5.32
2022-08-28T14:05:18.286Z,3.92
2022-08-28T14:07:45.537Z,9.60
2022-08-28T14:10:17.104Z,3.63
2022-08-28T14:12:49.313Z,2.10
2022-08-28T14:15:17.718Z,6.15
2022-08-28T14:17:47.374Z,2.10
2022-08-28T14:20:15.180Z,2.60
2022-08-28T14:22:42.798Z,3.22
2022-08-28T14:25:10.858Z,2.25
2022-08-28T14:27:40.360Z,2.63
2022-08-28T14:30:11.498Z,5.28
2022-08-28T14:32:39.502Z,2.65
2022-08-28T14:35:07.080Z,1.40
2022-08-28T14:37:41.901Z,3.65
2022-08-28T14:40:12.738Z,3.35
2022-08-28T14:42:41.867Z,2.58
2022-08-28T14:45:11.642Z,4.57
2022-08-28T14:47:41.460Z,3.20
2022-08-28T14:50:09.159Z,2.42
2022-08-28T14:52:38.996Z,4.20
2022-08-28T14:55:06.537Z,2.67
2022-08-28T14:57:33.730Z,1.63
2022-08-28T15:00:00.945Z,3.58
2022-08-28T15:02:32.734Z,4.28
2022-08-28T15:05:00.157Z,3.47
2022-08-28T15:07:29.819Z,3.75
2022-08-28T15:09:57.176Z,2.55
2022-08-28T15:12:24.426Z,2.97
2022-08-28T15:14:56.953Z,3.47
2022-08-28T15:17:34.615Z,3.40
2022-08-28T15:20:03.989Z,4.53
2022-08-28T15:22:31.301Z,1.83
2022-08-28T15:25:00.943Z,3.13
2022-08-28T15:27:30.585Z,2.55
2022-08-28T15:30:02.793Z,2.70
2022-08-28T15:32:30.004Z,3.75
2022-08-28T15:34:57.215Z,3.28
2022-08-28T15:37:24.494Z,3.70
2022-08-28T15:40:20.084Z,2.65
2022-08-28T15:42:52.446Z,1.52
2022-08-28T15:45:22.822Z,1.90
2022-08-28T15:47:53.576Z,2.60
2022-08-28T15:50:25.836Z,2.38
2022-08-28T15:52:53.546Z,3.20
2022-08-28T15:55:27.840Z,3.10
2022-08-28T15:57:55.163Z,3.03
2022-08-28T16:00:24.938Z,2.38
2022-08-28T16:02:52.212Z,3.38
2022-08-28T16:05:19.505Z,2.35
2022-08-28T16:07:49.261Z,2.33
2022-08-28T16:10:17.028Z,3.42
2022-08-28T16:12:47.996Z,2.15
2022-08-28T16:15:29.416Z,4.53
2022-08-28T16:17:59.327Z,2.10
2022-08-28T16:20:29.214Z,3.13
2022-08-28T16:22:56.410Z,2.45
2022-08-28T16:25:26.269Z,2.08
2022-08-28T16:27:58.536Z,2.65
2022-08-28T16:30:26.111Z,2.58
2022-08-28T16:32:54.204Z,2.97
2022-08-28T16:35:21.985Z,3.38
2022-08-28T16:37:51.586Z,3.33
2022-08-28T16:40:23.493Z,1.42
2022-08-28T16:42:53.105Z,2.60
2022-08-28T16:45:20.469Z,2.75
2022-08-28T16:47:48.180Z,2.80
2022-08-28T16:50:19.359Z,2.70
2022-08-28T16:52:53.727Z,3.25
2022-08-28T16:55:22.986Z,2.08
2022-08-28T16:57:53.144Z,3.03
2022-08-28T17:00:26.147Z,4.53
2022-08-28T17:02:56.138Z,3.63
2022-08-28T17:05:24.838Z,3.53
2022-08-28T17:07:52.320Z,3.15
2022-08-28T17:10:25.656Z,1.60
2022-08-28T17:12:53.949Z,1.88
2022-08-28T17:15:25.547Z,2.35
2022-08-28T17:17:52.826Z,2.60
2022-08-28T17:20:41.217Z,3.90
2022-08-28T17:23:10.856Z,1.70
2022-08-28T17:25:38.047Z,2.38
2022-08-28T17:28:05.269Z,2.13
2022-08-28T17:30:34.946Z,4.85
2022-08-28T17:33:07.137Z,2.47
2022-08-28T17:35:41.930Z,1.98
2022-08-28T17:38:12.825Z,2.85
2022-08-28T17:40:44.656Z,3.25
2022-08-28T17:43:14.075Z,6.10
2022-08-28T17:45:46.263Z,1.80
2022-08-28T17:48:14.353Z,1.80
2022-08-28T17:50:46.157Z,4.97
2022-08-28T17:53:13.388Z,3.35
2022-08-28T17:55:42.916Z,3.42
2022-08-28T17:58:13.195Z,2.63
2022-08-28T18:00:44.194Z,1.38
2022-08-28T18:03:11.380Z,3.03
2022-08-28T18:05:41.364Z,4.72
2022-08-28T18:08:11.069Z,3.67
2022-08-28T18:10:38.356Z,3.85
2022-08-28T18:13:06.790Z,1.90
2022-08-28T18:15:34.240Z,2.42
2022-08-28T18:18:04.315Z,4.22
2022-08-28T18:20:33.968Z,3.15
2022-08-28T18:23:02.059Z,2.03
2022-08-28T18:25:41.527Z,3.03
2022-08-28T18:28:17.073Z,1.42
2022-08-28T18:30:47.746Z,3.28
2022-08-28T18:33:17.487Z,3.97
2022-08-28T18:35:49.407Z,3.60
2022-08-28T18:38:22.937Z,1.70
2022-08-28T18:40:53.464Z,4.35
2022-08-28T18:43:22.404Z,2.67
2022-08-28T18:45:49.735Z,5.05
2022-08-28T18:48:19.784Z,4.03
2022-08-28T18:50:51.527Z,1.50
2022-08-28T18:53:21.353Z,5.68
2022-08-28T18:55:52.726Z,2.50
2022-08-28T18:58:23.763Z,2.15
2022-08-28T19:00:53.367Z,2.78
2022-08-28T19:03:24.484Z,1.77
2022-08-28T19:05:52.009Z,2.90
2022-08-28T19:08:19.325Z,2.40
2022-08-28T19:10:46.895Z,3.25
2022-08-28T19:13:14.752Z,3.15
2022-08-28T19:15:44.569Z,3.65
2022-08-28T19:18:11.748Z,4.30
2022-08-28T19:20:38.922Z,1.38
2022-08-28T19:23:08.739Z,2.05
2022-08-28T19:25:38.111Z,1.80
2022-08-28T19:28:05.308Z,2.47
2022-08-28T19:30:33.962Z,2.05
2022-08-28T19:33:03.686Z,2.65
2022-08-28T19:35:33.927Z,3.13
2022-08-28T19:38:01.347Z,4.32
2022-08-28T19:40:29.066Z,3.75
2022-08-28T19:42:58.611Z,1.92
2022-08-28T19:45:30.310Z,2.90
2022-08-28T19:48:00.222Z,1.65
2022-08-28T19:50:27.502Z,3.45
2022-08-28T19:52:54.725Z,1.98
2022-08-28T19:55:25.759Z,2.22
2022-08-28T19:57:53.361Z,3.95
2022-08-28T20:00:24.369Z,3.85
2022-08-28T20:02:52.538Z,1.92
2022-08-28T20:05:20.336Z,3.22
2022-08-28T20:07:47.784Z,2.05
2022-08-28T20:10:18.035Z,3.58
2022-08-28T20:12:48.861Z,3.80
2022-08-28T20:15:18.322Z,3.00
2022-08-28T20:17:49.764Z,3.70
2022-08-28T20:20:19.951Z,1.73
2022-08-28T20:22:54.302Z,3.00
2022-08-28T20:25:24.206Z,2.92
2022-08-28T20:27:51.544Z,3.00
2022-08-28T20:30:23.822Z,5.15
2022-08-28T20:32:51.406Z,3.88
2022-08-28T20:35:19.103Z,4.97
2022-08-28T20:37:51.884Z,2.70
2022-08-28T20:40:20.323Z,3.58
2022-08-28T20:42:53.187Z,8.05
2022-08-28T20:45:21.903Z,3.55
2022-08-28T20:47:49.637Z,3.28
2022-08-28T20:50:17.987Z,2.78
2022-08-28T20:52:45.746Z,2.17
2022-08-28T20:55:14.854Z,4.47
2022-08-28T20:57:42.101Z,1.73
2022-08-28T21:00:12.716Z,3.53
2022-08-28T21:02:40.130Z,3.28
2022-08-28T21:05:07.782Z,3.55
2022-08-28T21:07:37.827Z,2.40
2022-08-28T21:10:08.192Z,1.90
2022-08-28T21:12:39.398Z,3.35
2022-08-28T21:15:12.463Z,2.70
2022-08-28T21:17:41.049Z,4.95
2022-08-28T21:20:14.409Z,2.60
2022-08-28T21:22:46.959Z,3.55
2022-08-28T21:25:18.131Z,2.03
2022-08-28T21:27:45.499Z,4.65
2022-08-28T21:30:18.553Z,4.47
2022-08-28T21:32:46.541Z,2.88
2022-08-28T21:35:19.595Z,3.20
2022-08-28T21:37:48.110Z,3.53
2022-08-28T21:40:22.465Z,4.22
2022-08-28T21:42:51.835Z,3.38
2022-08-28T21:45:19.053Z,3.65
2022-08-28T21:47:48.958Z,2.72
2022-08-28T21:50:17.529Z,2.53
2022-08-28T21:52:45.539Z,4.40
2022-08-28T21:55:16.267Z,2.15
2022-08-28T21:57:46.269Z,2.80
2022-08-28T22:00:19.060Z,3.55
2022-08-28T22:02:46.990Z,2.97
2022-08-28T22:05:17.376Z,2.92
2022-08-28T22:07:47.149Z,3.88
2022-08-28T22:10:16.675Z,1.83
2022-08-28T22:12:43.966Z,3.92
2022-08-28T22:15:11.384Z,3.05
2022-08-28T22:17:38.652Z,4.13
2022-08-28T22:20:06.329Z,1.95
2022-08-28T22:22:54.541Z,3.38
2022-08-28T22:25:24.009Z,5.07
2022-08-28T22:27:53.647Z,3.33
2022-08-28T22:30:26.339Z,2.05
2022-08-28T22:32:56.547Z,2.85
2022-08-28T22:35:23.934Z,3.13
2022-08-28T22:37:53.587Z,5.35
2022-08-28T22:40:27.622Z,3.10
2022-08-28T22:42:55.202Z,2.95
2022-08-28T22:45:23.317Z,3.25
2022-08-28T22:47:50.716Z,3.05
2022-08-28T22:50:22.536Z,3.85
2022-08-28T22:52:52.498Z,3.22
2022-08-28T22:55:21.063Z,2.80
2022-08-28T22:57:49.188Z,3.53
2022-08-28T23:00:20.338Z,3.90
2022-08-28T23:02:51.033Z,3.63
2022-08-28T23:05:22.187Z,2.03
2022-08-28T23:07:49.425Z,3.92
2022-08-28T23:10:19.240Z,3.42
2022-08-28T23:12:49.409Z,3.85
2022-08-28T23:15:21.693Z,3.08
2022-08-28T23:17:49.821Z,3.28
2022-08-28T23:20:19.801Z,6.82
2022-08-28T23:22:48.397Z,2.83
2022-08-28T23:25:19.348Z,2.10
2022-08-28T23:27:50.336Z,3.28
2022-08-28T23:30:19.082Z,2.38
2022-08-28T23:32:48.816Z,4.03
2022-08-28T23:35:17.373Z,2.45
2022-08-28T23:37:51.788Z,3.53
2022-08-28T23:40:23.950Z,2.83
2022-08-28T23:42:52.860Z,3.75
2022-08-28T23:45:20.662Z,2.70
2022-08-28T23:47:48.557Z,2.58
2022-08-28T23:50:22.060Z,3.75
2022-08-28T23:52:50.691Z,5.18
2022-08-28T23:55:19.564Z,4.53
2022-08-28T23:57:47.214Z,3.22
